Time;durP1;ratioP1;P1;durP2;ratioP2;P2;SDS_P1;SDS_P2;PMS_P1;PMS_P2;Temp;Humidity;BMP_temperature;BMP_pressure;BME280_temperature;BME280_humidity;BME280_pressure;Samples;Min_cycle;Max_cycle;Signal;HPM_P1;HPM_P2
2022/09/15 00:00:02;;;;;;;2.13;1.83;;;;;;;;;;4947870;28;20237;-74
2022/09/15 00:02:32;;;;;;;5.03;2.10;;;;;;;;;;4927044;28;20219;-74
2022/09/15 00:04:58;;;;;;;4.63;2.30;;;;;;;;;;4932574;28;20265;-73
2022/09/15 00:07:23;;;;;;;4.73;2.03;;;;;;;;;;4908828;28;20214;-73
2022/09/15 00:09:51;;;;;;;2.23;2.00;;;;;;;;;;4954264;28;20229;-72
2022/09/15 00:12:19;;;;;;;3.37;1.90;;;;;;;;;;4955836;28;20260;-74
2022/09/15 00:14:47;;;;;;;2.57;1.93;;;;;;;;;;4928956;28;20240;-74
2022/09/15 00:17:12;;;;;;;5.40;1.83;;;;;;;;;;4942937;28;20223;-74
2022/09/15 00:19:40;;;;;;;1.93;1.70;;;;;;;;;;4957659;28;20227;-73
2022/09/15 00:22:09;;;;;;;2.97;1.90;;;;;;;;;;4957066;28;20222;-73
2022/09/15 00:24:37;;;;;;;6.63;2.17;;;;;;;;;;4941408;28;20267;-72
2022/09/15 00:27:02;;;;;;;3.47;1.90;;;;;;;;;;4943030;28;20233;-73
2022/09/15 00:29:30;;;;;;;3.63;2.00;;;;;;;;;;4924839;29;20279;-74
2022/09/15 00:31:58;;;;;;;3.93;2.00;;;;;;;;;;4961226;28;20230;-74
2022/09/15 00:34:23;;;;;;;2.33;1.80;;;;;;;;;;4954786;28;20239;-73
2022/09/15 00:36:53;;;;;;;2.33;2.13;;;;;;;;;;4922138;28;20226;-74
2022/09/15 00:39:21;;;;;;;2.93;2.00;;;;;;;;;;4935408;28;20227;-75
2022/09/15 00:41:47;;;;;;;1.83;1.60;;;;;;;;;;4945896;28;20235;-74
2022/09/15 00:44:18;;;;;;;2.07;1.63;;;;;;;;;;4929397;28;20223;-74
2022/09/15 00:46:49;;;;;;;2.97;1.70;;;;;;;;;;4957254;28;20271;-73
2022/09/15 00:49:19;;;;;;;3.00;2.10;;;;;;;;;;4940331;28;20231;-73
2022/09/15 00:51:48;;;;;;;5.37;2.30;;;;;;;;;;4956804;28;20273;-74
2022/09/15 00:54:33;;;;;;;2.67;2.00;;;;;;;;;;4940285;28;20241;-74
2022/09/15 00:57:01;;;;;;;2.10;1.83;;;;;;;;;;4940539;29;20321;-73
2022/09/15 00:59:30;;;;;;;2.77;2.20;;;;;;;;;;4954074;28;20331;-74
2022/09/15 01:02:04;;;;;;;3.87;2.40;;;;;;;;;;4936467;28;20308;-74
2022/09/15 01:04:32;;;;;;;4.87;2.40;;;;;;;;;;4940160;28;20304;-74
2022/09/15 01:06:59;;;;;;;2.53;2.20;;;;;;;;;;4925834;28;20226;-74
2022/09/15 01:09:49;;;;;;;2.50;2.30;;;;;;;;;;4939951;28;20258;-74
2022/09/15 01:12:17;;;;;;;2.93;2.30;;;;;;;;;;4935085;28;20230;-73
2022/09/15 01:14:43;;;;;;;4.57;2.20;;;;;;;;;;4925712;28;20237;-74
2022/09/15 01:17:46;;;;;;;6.23;2.80;;;;;;;;;;4945459;28;20238;-73
2022/09/15 01:20:36;;;;;;;5.13;2.40;;;;;;;;;;4954227;28;20246;-74
2022/09/15 01:23:20;;;;;;;3.03;1.97;;;;;;;;;;4959515;28;20593;-73
2022/09/15 01:26:24;;;;;;;2.50;2.30;;;;;;;;;;4956697;28;20284;-74
2022/09/15 01:28:58;;;;;;;2.97;2.00;;;;;;;;;;4958159;28;20250;-74
2022/09/15 01:34:48;;;;;;;4.37;2.17;;;;;;;;;;4942808;28;20227;-74
2022/09/15 01:37:21;;;;;;;2.57;1.80;;;;;;;;;;4923609;28;20231;-74
2022/09/15 01:39:47;;;;;;;3.10;2.23;;;;;;;;;;4938089;28;20239;-74
2022/09/15 01:42:13;;;;;;;8.80;2.30;;;;;;;;;;4934989;28;20263;-75
2022/09/15 01:44:45;;;;;;;4.63;2.13;;;;;;;;;;4921339;28;20222;-74
2022/09/15 01:47:12;;;;;;;3.10;2.20;;;;;;;;;;4941901;28;20221;-73
2022/09/15 01:49:58;;;;;;;2.60;2.00;;;;;;;;;;4931570;28;20318;-74
2022/09/15 01:52:24;;;;;;;3.13;2.03;;;;;;;;;;4948042;28;20353;-74
2022/09/15 01:54:59;;;;;;;2.20;1.83;;;;;;;;;;4940406;28;20698;-74
2022/09/15 01:57:32;;;;;;;2.40;1.90;;;;;;;;;;4944319;28;20218;-75
2022/09/15 02:00:03;;;;;;;7.53;2.23;;;;;;;;;;4930508;28;20231;-74
2022/09/15 02:02:36;;;;;;;5.50;1.93;;;;;;;;;;4949909;28;20218;-75
2022/09/15 02:05:18;;;;;;;2.90;1.87;;;;;;;;;;4938788;28;20590;-74
2022/09/15 02:08:05;;;;;;;3.13;1.73;;;;;;;;;;4936421;28;20240;-74
2022/09/15 02:10:33;;;;;;;3.37;1.63;;;;;;;;;;4955525;28;20234;-74
2022/09/15 02:13:05;;;;;;;2.93;2.07;;;;;;;;;;4967285;28;20237;-74
2022/09/15 02:15:45;;;;;;;3.03;1.80;;;;;;;;;;4932956;28;20225;-74
2022/09/15 02:18:27;;;;;;;3.10;1.87;;;;;;;;;;4913842;28;20230;-74
2022/09/15 02:20:58;;;;;;;5.60;1.97;;;;;;;;;;4939740;28;20242;-71
2022/09/15 02:23:27;;;;;;;1.70;1.60;;;;;;;;;;4940555;28;20221;-73
2022/09/15 02:26:03;;;;;;;3.33;1.83;;;;;;;;;;4914820;28;20233;-73
2022/09/15 02:28:33;;;;;;;3.90;1.80;;;;;;;;;;4938770;28;20325;-73
2022/09/15 02:30:59;;;;;;;5.40;2.30;;;;;;;;;;4925257;28;20227;-73
2022/09/15 02:33:25;;;;;;;3.50;1.73;;;;;;;;;;4925991;28;20222;-73
2022/09/15 02:35:53;;;;;;;3.03;2.00;;;;;;;;;;4924552;28;20705;-73
2022/09/15 02:38:19;;;;;;;4.23;2.00;;;;;;;;;;4939528;28;20222;-72
2022/09/15 02:40:44;;;;;;;3.20;1.90;;;;;;;;;;4927595;28;20713;-73
2022/09/15 02:43:12;;;;;;;3.33;2.00;;;;;;;;;;4929362;28;20246;-73
2022/09/15 02:45:40;;;;;;;3.07;1.93;;;;;;;;;;4946362;28;20219;-73
2022/09/15 02:48:08;;;;;;;5.67;2.33;;;;;;;;;;4957308;28;20241;-73
2022/09/15 02:50:33;;;;;;;4.80;2.40;;;;;;;;;;4959272;28;20317;-73
2022/09/15 02:52:59;;;;;;;2.97;1.97;;;;;;;;;;4922846;28;20223;-74
2022/09/15 02:55:28;;;;;;;3.23;2.50;;;;;;;;;;4941568;28;20218;-73
2022/09/15 02:57:56;;;;;;;3.67;2.23;;;;;;;;;;4956601;28;20740;-73
2022/09/15 03:00:27;;;;;;;2.60;1.90;;;;;;;;;;4928359;28;20219;-73
2022/09/15 03:02:55;;;;;;;4.23;2.10;;;;;;;;;;4925580;28;20227;-73
2022/09/15 03:05:25;;;;;;;2.40;1.73;;;;;;;;;;4954214;28;20313;-73
2022/09/15 03:07:53;;;;;;;3.73;2.07;;;;;;;;;;4926002;28;20223;-73
2022/09/15 03:10:22;;;;;;;4.70;1.97;;;;;;;;;;4930040;28;20284;-73
2022/09/15 03:12:49;;;;;;;4.53;2.10;;;;;;;;;;4939890;28;20230;-73
2022/09/15 03:15:16;;;;;;;3.37;1.70;;;;;;;;;;4944164;28;20222;-72
2022/09/15 03:17:43;;;;;;;4.27;2.17;;;;;;;;;;4939987;28;20278;-73
2022/09/15 03:20:10;;;;;;;3.73;2.17;;;;;;;;;;4927243;28;20286;-72
2022/09/15 03:22:38;;;;;;;3.90;2.47;;;;;;;;;;4940948;28;20227;-72
2022/09/15 03:25:06;;;;;;;3.60;2.00;;;;;;;;;;4944621;28;20234;-73
2022/09/15 03:27:34;;;;;;;2.97;2.07;;;;;;;;;;4922652;28;20259;-72
2022/09/15 03:30:00;;;;;;;4.20;2.10;;;;;;;;;;4940438;28;20238;-72
2022/09/15 03:32:26;;;;;;;3.60;2.40;;;;;;;;;;4925685;28;20258;-73
2022/09/15 03:34:51;;;;;;;2.47;2.10;;;;;;;;;;4936525;28;20334;-74
2022/09/15 03:37:17;;;;;;;3.43;2.50;;;;;;;;;;4942859;28;20230;-71
2022/09/15 03:39:45;;;;;;;4.83;2.67;;;;;;;;;;4921465;28;20739;-74
2022/09/15 03:42:11;;;;;;;6.80;3.13;;;;;;;;;;4907339;28;20241;-73
2022/09/15 03:44:36;;;;;;;3.97;2.93;;;;;;;;;;4925875;28;20226;-73
2022/09/15 03:47:04;;;;;;;2.83;2.60;;;;;;;;;;4924668;28;21040;-73
2022/09/15 03:49:30;;;;;;;3.47;3.07;;;;;;;;;;4941981;28;20237;-74
2022/09/15 03:51:57;;;;;;;3.63;3.03;;;;;;;;;;4924010;28;20826;-73
2022/09/15 03:54:23;;;;;;;5.00;3.07;;;;;;;;;;4941589;28;20235;-72
2022/09/15 03:56:54;;;;;;;5.93;3.40;;;;;;;;;;4920634;28;20233;-73
2022/09/15 03:59:20;;;;;;;5.87;3.33;;;;;;;;;;4887621;28;20226;-73
2022/09/15 04:01:46;;;;;;;5.57;3.20;;;;;;;;;;4943063;28;20243;-74
2022/09/15 04:04:12;;;;;;;4.40;3.13;;;;;;;;;;4919602;28;20223;-73
2022/09/15 04:06:40;;;;;;;5.80;3.53;;;;;;;;;;4942017;28;20241;-73
2022/09/15 04:09:05;;;;;;;4.60;3.20;;;;;;;;;;4911412;28;20696;-74
2022/09/15 04:11:33;;;;;;;5.87;3.87;;;;;;;;;;4923736;28;20254;-73
2022/09/15 04:14:03;;;;;;;5.13;3.77;;;;;;;;;;4942966;28;20705;-73
2022/09/15 04:16:29;;;;;;;4.67;3.60;;;;;;;;;;4924517;28;20231;-72
2022/09/15 04:18:54;;;;;;;4.60;3.57;;;;;;;;;;4943271;28;21058;-72
2022/09/15 04:21:24;;;;;;;6.43;3.77;;;;;;;;;;4939805;28;20231;-72
2022/09/15 04:23:50;;;;;;;7.67;4.30;;;;;;;;;;4958310;28;20227;-72
2022/09/15 04:26:17;;;;;;;3.60;3.30;;;;;;;;;;4924788;28;20306;-72
2022/09/15 04:28:45;;;;;;;4.37;3.90;;;;;;;;;;4927427;29;20239;-72
2022/09/15 04:31:12;;;;;;;4.77;4.23;;;;;;;;;;4939518;28;20225;-72
2022/09/15 04:33:40;;;;;;;8.37;4.40;;;;;;;;;;4912109;28;20222;-72
2022/09/15 04:36:08;;;;;;;4.97;3.50;;;;;;;;;;4935214;28;20227;-74
2022/09/15 04:38:38;;;;;;;5.73;3.67;;;;;;;;;;4942672;28;20223;-71
2022/09/15 04:41:04;;;;;;;6.13;3.83;;;;;;;;;;4926249;28;20629;-74
2022/09/15 04:43:30;;;;;;;5.93;4.13;;;;;;;;;;4918211;28;20233;-71
2022/09/15 04:45:56;;;;;;;5.03;3.63;;;;;;;;;;4937484;28;20226;-74
2022/09/15 04:48:24;;;;;;;4.10;3.73;;;;;;;;;;4939884;28;20231;-73
2022/09/15 04:50:52;;;;;;;5.63;3.67;;;;;;;;;;4927261;28;20234;-72
2022/09/15 04:53:20;;;;;;;4.63;3.60;;;;;;;;;;4927254;28;20600;-73
2022/09/15 04:55:46;;;;;;;4.30;3.90;;;;;;;;;;4957827;28;20717;-75
2022/09/15 04:58:11;;;;;;;5.03;4.00;;;;;;;;;;4926264;28;20226;-72
2022/09/15 05:00:44;;;;;;;5.50;3.87;;;;;;;;;;4940435;28;20627;-72
2022/09/15 05:03:13;;;;;;;6.10;4.27;;;;;;;;;;4917291;28;20306;-72
2022/09/15 05:05:39;;;;;;;4.63;3.70;;;;;;;;;;4926174;28;20241;-72
2022/09/15 05:08:07;;;;;;;6.83;4.10;;;;;;;;;;4924427;28;20230;-72
2022/09/15 05:10:37;;;;;;;5.57;3.90;;;;;;;;;;4940841;28;20353;-71
2022/09/15 05:13:02;;;;;;;5.50;3.80;;;;;;;;;;4926160;28;20227;-72
2022/09/15 05:15:28;;;;;;;4.73;3.93;;;;;;;;;;4926358;28;20675;-71
2022/09/15 05:17:55;;;;;;;5.77;4.27;;;;;;;;;;4943242;28;20226;-71
2022/09/15 05:21:18;;;;;;;4.10;3.70;;;;;;;;;;4914300;28;20994;-74
2022/09/15 05:23:45;;;;;;;4.80;3.90;;;;;;;;;;4877963;29;20364;-73
2022/09/15 05:26:15;;;;;;;5.33;4.43;;;;;;;;;;4934824;28;20633;-73
2022/09/15 05:28:41;;;;;;;6.70;4.37;;;;;;;;;;4941964;28;20239;-73
2022/09/15 05:31:19;;;;;;;5.93;3.80;;;;;;;;;;4938938;28;20222;-73
2022/09/15 05:33:47;;;;;;;5.03;3.97;;;;;;;;;;4926376;28;20234;-73
2022/09/15 05:36:20;;;;;;;5.03;3.70;;;;;;;;;;4906999;28;20222;-73
2022/09/15 05:38:45;;;;;;;6.40;3.73;;;;;;;;;;4925219;28;20231;-73
2022/09/15 05:41:12;;;;;;;6.00;3.63;;;;;;;;;;4922318;28;20226;-72
2022/09/15 05:43:38;;;;;;;7.40;3.63;;;;;;;;;;4942607;28;20250;-72
2022/09/15 05:46:06;;;;;;;4.87;3.57;;;;;;;;;;4931752;28;20225;-72
2022/09/15 05:48:32;;;;;;;4.53;3.37;;;;;;;;;;4911231;28;20238;-72
2022/09/15 05:51:00;;;;;;;5.00;3.33;;;;;;;;;;4941820;28;20216;-71
2022/09/15 05:53:25;;;;;;;3.97;3.47;;;;;;;;;;4910538;28;20277;-73
2022/09/15 05:55:58;;;;;;;6.27;3.30;;;;;;;;;;4926139;28;20343;-73
2022/09/15 05:58:26;;;;;;;5.90;4.03;;;;;;;;;;4924037;28;20237;-74
2022/09/15 06:00:54;;;;;;;4.80;3.47;;;;;;;;;;4914209;28;20228;-73
2022/09/15 06:03:20;;;;;;;7.53;3.90;;;;;;;;;;4937653;28;20313;-71
2022/09/15 06:05:45;;;;;;;6.67;4.00;;;;;;;;;;4921583;28;20229;-72
2022/09/15 06:08:11;;;;;;;5.80;3.80;;;;;;;;;;4941348;28;20231;-72
2022/09/15 06:10:37;;;;;;;4.33;3.20;;;;;;;;;;4942695;28;20234;-73
2022/09/15 06:13:08;;;;;;;3.90;3.13;;;;;;;;;;4944261;28;20226;-74
2022/09/15 06:15:33;;;;;;;7.82;3.35;;;;;;;;;;4927866;28;20231;-73
2022/09/15 06:17:59;;;;;;;5.33;3.10;;;;;;;;;;4910378;28;20229;-73
2022/09/15 06:20:29;;;;;;;6.20;3.20;;;;;;;;;;4948899;28;20237;-74
2022/09/15 06:22:57;;;;;;;5.63;3.30;;;;;;;;;;4923604;28;20259;-73
2022/09/15 06:25:26;;;;;;;3.13;2.67;;;;;;;;;;4943899;28;20732;-74
2022/09/15 06:27:51;;;;;;;6.77;3.23;;;;;;;;;;4926106;28;20231;-74
2022/09/15 06:30:19;;;;;;;5.13;3.40;;;;;;;;;;4929453;28;20231;-74
2022/09/15 06:32:48;;;;;;;6.43;3.25;;;;;;;;;;4944609;28;20277;-73
2022/09/15 06:35:19;;;;;;;5.63;3.25;;;;;;;;;;4928529;28;20696;-74
2022/09/15 06:37:49;;;;;;;4.00;3.07;;;;;;;;;;4929585;28;20250;-72
2022/09/15 06:40:17;;;;;;;3.30;2.80;;;;;;;;;;4925198;28;20784;-71
2022/09/15 06:42:47;;;;;;;4.27;2.80;;;;;;;;;;4943628;28;20281;-72
2022/09/15 06:45:13;;;;;;;5.33;2.80;;;;;;;;;;4945154;28;20227;-72
2022/09/15 06:47:39;;;;;;;3.27;2.50;;;;;;;;;;4943747;28;21653;-72
2022/09/15 06:50:07;;;;;;;4.97;2.60;;;;;;;;;;4912761;28;20226;-73
2022/09/15 06:52:32;;;;;;;4.35;2.72;;;;;;;;;;4943523;28;21817;-74
2022/09/15 06:54:58;;;;;;;4.47;2.47;;;;;;;;;;4924855;28;20223;-74
2022/09/15 06:57:33;;;;;;;3.37;2.40;;;;;;;;;;4942737;28;20226;-73
2022/09/15 06:59:59;;;;;;;17.43;15.37;;;;;;;;;;4970552;23;20317;-74
2022/09/15 07:02:27;;;;;;;5.70;3.70;;;;;;;;;;4958268;28;20672;-74
2022/09/15 07:04:53;;;;;;;4.40;2.78;;;;;;;;;;4947302;28;20253;-75
2022/09/15 07:07:20;;;;;;;5.93;2.50;;;;;;;;;;4946866;28;20607;-74
2022/09/15 07:09:46;;;;;;;5.50;2.58;;;;;;;;;;4961668;28;20316;-73
2022/09/15 07:12:11;;;;;;;4.05;2.40;;;;;;;;;;4961139;28;20214;-74
2022/09/15 07:14:37;;;;;;;4.43;2.10;;;;;;;;;;4914904;28;20712;-73
2022/09/15 07:17:05;;;;;;;3.30;1.83;;;;;;;;;;4933277;28;20229;-73
2022/09/15 07:19:30;;;;;;;2.55;1.88;;;;;;;;;;4960483;28;20230;-74
2022/09/15 07:21:56;;;;;;;3.75;2.00;;;;;;;;;;4928746;28;20292;-74
2022/09/15 07:24:22;;;;;;;3.08;1.67;;;;;;;;;;4944884;28;20301;-74
2022/09/15 07:26:47;;;;;;;3.95;2.00;;;;;;;;;;4925226;28;20226;-75
2022/09/15 07:29:15;;;;;;;3.00;1.60;;;;;;;;;;4944658;28;20230;-74
2022/09/15 07:31:41;;;;;;;3.63;1.60;;;;;;;;;;4945074;28;20264;-74
2022/09/15 07:34:06;;;;;;;3.97;1.70;;;;;;;;;;4950007;28;20238;-74
2022/09/15 07:36:32;;;;;;;2.78;1.67;;;;;;;;;;4964079;28;20333;-75
2022/09/15 07:38:58;;;;;;;3.03;2.00;;;;;;;;;;4951009;28;20230;-75
2022/09/15 07:41:28;;;;;;;4.22;2.00;;;;;;;;;;4961210;28;20226;-74
2022/09/15 07:43:58;;;;;;;2.08;1.17;;;;;;;;;;4948824;28;20233;-77
2022/09/15 07:46:25;;;;;;;5.85;1.70;;;;;;;;;;4949792;28;20230;-74
2022/09/15 07:48:57;;;;;;;2.65;1.35;;;;;;;;;;4955405;28;20249;-74
2022/09/15 07:51:23;;;;;;;4.43;1.60;;;;;;;;;;4956473;28;20230;-75
2022/09/15 07:53:49;;;;;;;2.85;1.38;;;;;;;;;;4947982;28;20230;-74
2022/09/15 07:56:36;;;;;;;3.25;1.17;;;;;;;;;;4965417;28;20230;-76
2022/09/15 07:59:02;;;;;;;2.55;1.02;;;;;;;;;;4950542;28;20226;-74
2022/09/15 08:01:32;;;;;;;3.58;1.20;;;;;;;;;;4947800;28;20230;-73
2022/09/15 08:03:59;;;;;;;3.80;1.13;;;;;;;;;;4946254;28;20226;-76
2022/09/15 08:06:26;;;;;;;2.70;1.20;;;;;;;;;;4947083;28;20218;-74
2022/09/15 08:08:54;;;;;;;5.32;1.27;;;;;;;;;;4940656;28;20269;-73
2022/09/15 08:11:19;;;;;;;3.55;1.13;;;;;;;;;;4963213;28;20678;-75
2022/09/15 08:13:46;;;;;;;3.25;1.10;;;;;;;;;;4939749;28;20222;-75
2022/09/15 08:16:13;;;;;;;3.75;0.90;;;;;;;;;;4939803;28;20270;-74
2022/09/15 08:18:40;;;;;;;3.35;1.00;;;;;;;;;;4960564;28;20274;-76
2022/09/15 08:21:08;;;;;;;3.40;1.25;;;;;;;;;;4960789;28;20218;-75
2022/09/15 08:23:34;;;;;;;4.60;1.08;;;;;;;;;;4949345;28;20800;-75
2022/09/15 08:26:09;;;;;;;2.55;1.17;;;;;;;;;;4945464;28;20725;-76
2022/09/15 08:28:35;;;;;;;2.97;1.30;;;;;;;;;;4935209;28;20374;-74
2022/09/15 08:31:02;;;;;;;3.00;1.08;;;;;;;;;;4961816;28;20308;-76
2022/09/15 08:33:28;;;;;;;4.55;1.20;;;;;;;;;;4962351;28;20230;-75
2022/09/15 08:35:55;;;;;;;2.88;1.13;;;;;;;;;;4964487;28;20226;-75
2022/09/15 08:38:23;;;;;;;2.50;1.20;;;;;;;;;;4947093;28;20219;-75
2022/09/15 08:40:52;;;;;;;4.18;1.10;;;;;;;;;;4973173;28;20231;-75
2022/09/15 08:43:24;;;;;;;3.05;1.25;;;;;;;;;;4950823;28;20313;-75
2022/09/15 08:45:59;;;;;;;3.70;1.05;;;;;;;;;;4942455;28;20608;-76
2022/09/15 08:48:47;;;;;;;6.85;1.00;;;;;;;;;;4931976;28;20837;-75
2022/09/15 08:51:22;;;;;;;2.95;1.10;;;;;;;;;;4960982;28;20245;-75
2022/09/15 08:53:52;;;;;;;2.92;1.25;;;;;;;;;;4914966;28;20256;-75
2022/09/15 08:56:21;;;;;;;3.97;1.17;;;;;;;;;;4946413;28;20222;-76
2022/09/15 08:58:47;;;;;;;3.67;1.15;;;;;;;;;;4962704;28;20234;-75
2022/09/15 09:01:27;;;;;;;3.95;1.10;;;;;;;;;;4944904;28;20286;-75
2022/09/15 09:04:15;;;;;;;2.88;1.10;;;;;;;;;;4978641;28;20236;-75
2022/09/15 09:06:55;;;;;;;4.60;1.02;;;;;;;;;;4961367;28;20249;-76
2022/09/15 09:09:51;;;;;;;2.50;0.90;;;;;;;;;;4963788;28;20230;-76
2022/09/15 09:12:46;;;;;;;2.83;0.82;;;;;;;;;;4944324;28;21305;-74
2022/09/15 09:15:43;;;;;;;3.42;1.17;;;;;;;;;;4952577;28;20233;-74
2022/09/15 09:18:25;;;;;;;2.38;1.10;;;;;;;;;;4938462;28;20241;-74
2022/09/15 09:21:03;;;;;;;1.45;0.90;;;;;;;;;;4973136;28;20704;-74
2022/09/15 09:23:35;;;;;;;2.20;1.00;;;;;;;;;;4964045;28;20237;-74
2022/09/15 09:26:01;;;;;;;5.13;2.27;;;;;;;;;;4948941;28;20246;-75
2022/09/15 09:28:36;;;;;;;2.73;1.43;;;;;;;;;;4945144;28;20230;-74
2022/09/15 09:31:06;;;;;;;3.20;1.23;;;;;;;;;;4961348;28;20300;-76
2022/09/15 09:33:37;;;;;;;3.60;1.27;;;;;;;;;;4934363;28;20225;-75
2022/09/15 09:36:03;;;;;;;4.83;1.23;;;;;;;;;;4961727;28;20230;-77
2022/09/15 09:38:29;;;;;;;2.17;1.10;;;;;;;;;;4946430;28;20884;-75
2022/09/15 09:40:56;;;;;;;2.97;1.10;;;;;;;;;;4957138;28;20226;-75
2022/09/15 09:43:26;;;;;;;1.93;1.00;;;;;;;;;;4947072;28;20229;-75
2022/09/15 09:45:52;;;;;;;8.43;1.50;;;;;;;;;;4931974;28;20230;-75
2022/09/15 09:48:19;;;;;;;2.97;1.27;;;;;;;;;;4959874;28;20615;-75
2022/09/15 09:50:51;;;;;;;3.25;1.30;;;;;;;;;;4962893;28;20282;-75
2022/09/15 09:53:24;;;;;;;3.95;1.33;;;;;;;;;;4938413;28;20255;-72
2022/09/15 09:55:52;;;;;;;3.83;1.30;;;;;;;;;;4964990;28;20222;-76
2022/09/15 09:58:24;;;;;;;2.45;1.08;;;;;;;;;;4951233;28;20230;-76
2022/09/15 10:00:51;;;;;;;3.55;1.08;;;;;;;;;;4951032;28;20285;-75
2022/09/15 10:03:19;;;;;;;2.28;1.15;;;;;;;;;;4947218;28;20232;-75
2022/09/15 10:06:16;;;;;;;1.77;0.80;;;;;;;;;;4938600;28;20218;-76
2022/09/15 10:09:07;;;;;;;3.90;1.10;;;;;;;;;;4948715;28;21504;-75
2022/09/15 10:11:44;;;;;;;2.13;0.90;;;;;;;;;;4957513;28;20230;-75
2022/09/15 10:14:29;;;;;;;3.40;1.10;;;;;;;;;;4961658;28;20632;-75
2022/09/15 10:17:00;;;;;;;1.48;0.90;;;;;;;;;;4949858;28;20226;-74
2022/09/15 10:19:27;;;;;;;5.18;0.80;;;;;;;;;;4964772;28;20296;-75
2022/09/15 10:21:53;;;;;;;2.78;0.80;;;;;;;;;;4946698;28;20236;-74
2022/09/15 10:24:35;;;;;;;2.53;0.98;;;;;;;;;;4962635;28;20227;-74
2022/09/15 10:27:15;;;;;;;4.55;0.80;;;;;;;;;;4947648;28;20232;-75
2022/09/15 10:29:43;;;;;;;2.03;0.90;;;;;;;;;;4971728;28;20233;-74
2022/09/15 10:32:25;;;;;;;1.40;0.70;;;;;;;;;;4933364;28;20211;-75
2022/09/15 10:35:19;;;;;;;1.73;0.70;;;;;;;;;;4961117;28;20218;-74
2022/09/15 10:38:14;;;;;;;1.48;0.60;;;;;;;;;;4948441;28;20317;-74
2022/09/15 10:41:08;;;;;;;1.60;0.70;;;;;;;;;;4941186;28;20234;-74
2022/09/15 10:43:53;;;;;;;1.65;0.70;;;;;;;;;;4958224;28;20223;-76
2022/09/15 10:46:57;;;;;;;0.93;0.50;;;;;;;;;;4965193;28;20252;-76
2022/09/15 10:50:05;;;;;;;1.67;0.70;;;;;;;;;;4964786;28;20301;-76
2022/09/15 10:52:56;;;;;;;1.35;0.75;;;;;;;;;;4964238;28;20222;-74
2022/09/15 10:55:25;;;;;;;1.45;0.52;;;;;;;;;;4968463;28;20289;-74
2022/09/15 10:58:13;;;;;;;0.50;0.50;;;;;;;;;;4955918;28;20218;-76
2022/09/15 11:00:45;;;;;;;2.15;0.80;;;;;;;;;;4968294;28;20238;-77
2022/09/15 11:03:23;;;;;;;3.15;0.70;;;;;;;;;;4950573;28;20226;-75
2022/09/15 11:06:03;;;;;;;5.13;0.85;;;;;;;;;;4970131;28;20264;-77
2022/09/15 11:08:41;;;;;;;4.20;0.70;;;;;;;;;;4970882;28;20659;-76
2022/09/15 11:11:46;;;;;;;2.53;0.52;;;;;;;;;;4943929;28;20241;-76
2022/09/15 11:14:27;;;;;;;1.60;0.80;;;;;;;;;;4966830;28;20221;-75
2022/09/15 11:17:02;;;;;;;1.08;0.60;;;;;;;;;;4966649;28;20316;-77
2022/09/15 11:20:04;;;;;;;3.20;0.70;;;;;;;;;;4966636;28;20237;-75
2022/09/15 11:22:40;;;;;;;4.43;1.90;;;;;;;;;;4964522;28;20221;-75
2022/09/15 11:25:09;;;;;;;4.63;1.08;;;;;;;;;;4950269;28;20222;-76
2022/09/15 11:27:40;;;;;;;1.85;1.17;;;;;;;;;;4976353;28;20226;-75
2022/09/15 11:30:19;;;;;;;5.20;0.88;;;;;;;;;;4956297;28;20288;-78
2022/09/15 11:32:50;;;;;;;2.35;0.95;;;;;;;;;;4945948;28;20862;-76
2022/09/15 11:35:25;;;;;;;2.40;0.90;;;;;;;;;;4963337;28;20296;-76
2022/09/15 11:37:51;;;;;;;3.28;0.80;;;;;;;;;;4966883;28;20798;-75
2022/09/15 11:40:28;;;;;;;5.53;0.95;;;;;;;;;;4974794;28;20218;-74
2022/09/15 11:42:59;;;;;;;2.10;0.63;;;;;;;;;;4966040;28;20257;-75
2022/09/15 11:45:27;;;;;;;1.95;0.85;;;;;;;;;;4963487;28;20238;-77
2022/09/15 11:48:23;;;;;;;2.75;0.80;;;;;;;;;;4949488;28;20708;-77
2022/09/15 11:50:49;;;;;;;3.03;0.88;;;;;;;;;;4951869;28;20230;-76
2022/09/15 11:53:35;;;;;;;1.52;0.80;;;;;;;;;;4949771;28;20231;-76
2022/09/15 11:56:07;;;;;;;1.75;0.80;;;;;;;;;;4978619;28;20219;-79
2022/09/15 11:58:51;;;;;;;2.60;0.77;;;;;;;;;;4964345;28;20349;-76
2022/09/15 12:01:24;;;;;;;1.80;0.82;;;;;;;;;;4963402;28;20218;-78
2022/09/15 12:04:03;;;;;;;2.45;0.80;;;;;;;;;;4962874;28;20230;-74
2022/09/15 12:06:37;;;;;;;1.45;0.80;;;;;;;;;;4952081;28;20234;-77
2022/09/15 12:09:05;;;;;;;2.28;0.90;;;;;;;;;;4966962;28;20324;-76
2022/09/15 12:11:34;;;;;;;1.88;0.70;;;;;;;;;;4956610;28;20246;-76
2022/09/15 12:14:01;;;;;;;2.80;0.80;;;;;;;;;;4951534;28;20222;-76
2022/09/15 12:16:27;;;;;;;2.13;0.63;;;;;;;;;;4969286;28;20224;-79
2022/09/15 12:19:14;;;;;;;2.05;0.70;;;;;;;;;;4944715;28;20608;-75
2022/09/15 12:21:49;;;;;;;1.55;0.70;;;;;;;;;;4952401;28;20226;-74
2022/09/15 12:24:22;;;;;;;1.52;0.60;;;;;;;;;;4964602;28;20615;-76
2022/09/15 12:26:47;;;;;;;3.90;0.50;;;;;;;;;;4961931;28;20272;-76
2022/09/15 12:29:25;;;;;;;1.58;0.50;;;;;;;;;;4940610;28;20234;-74
2022/09/15 12:32:15;;;;;;;1.30;0.50;;;;;;;;;;4975801;28;20320;-75
2022/09/15 12:35:04;;;;;;;1.77;0.70;;;;;;;;;;4978512;28;20776;-77
2022/09/15 12:37:46;;;;;;;1.42;0.80;;;;;;;;;;4978540;28;20227;-76
2022/09/15 12:40:29;;;;;;;1.85;0.77;;;;;;;;;;4970430;28;20233;-75
2022/09/15 12:43:15;;;;;;;2.15;0.70;;;;;;;;;;4955703;28;20360;-77
2022/09/15 12:45:42;;;;;;;1.63;0.80;;;;;;;;;;4958892;28;20330;-76
2022/09/15 12:48:22;;;;;;;0.87;0.57;;;;;;;;;;4958809;28;20321;-75
2022/09/15 12:51:09;;;;;;;9.35;8.05;;;;;;;;;;4943620;28;20245;-77
2022/09/15 12:54:06;;;;;;;1.15;0.95;;;;;;;;;;4941255;28;20271;-75
2022/09/15 12:56:32;;;;;;;1.50;0.80;;;;;;;;;;4935985;28;20222;-74
2022/09/15 12:59:04;;;;;;;0.95;0.55;;;;;;;;;;4958956;28;20262;-74
2022/09/15 13:01:31;;;;;;;0.60;0.60;;;;;;;;;;4958407;28;20250;-73
2022/09/15 13:03:57;;;;;;;1.20;0.70;;;;;;;;;;4931081;28;20226;-75
2022/09/15 13:06:25;;;;;;;0.85;0.55;;;;;;;;;;4956542;28;20264;-73
2022/09/15 13:09:18;;;;;;;3.25;0.90;;;;;;;;;;4941412;28;20238;-74
2022/09/15 13:11:49;;;;;;;1.27;0.60;;;;;;;;;;4959263;28;20317;-76
2022/09/15 13:14:22;;;;;;;2.40;0.75;;;;;;;;;;4946878;28;20368;-76
2022/09/15 13:17:00;;;;;;;2.85;0.90;;;;;;;;;;4958665;28;20226;-75
2022/09/15 13:19:32;;;;;;;1.30;0.73;;;;;;;;;;4944159;28;20723;-75
2022/09/15 13:22:07;;;;;;;1.33;0.52;;;;;;;;;;4954056;28;20234;-74
2022/09/15 13:24:42;;;;;;;1.05;0.70;;;;;;;;;;4952487;28;20225;-75
2022/09/15 13:27:08;;;;;;;1.73;0.80;;;;;;;;;;4959641;28;20700;-75
2022/09/15 13:29:37;;;;;;;1.48;0.63;;;;;;;;;;4959269;28;20286;-75
2022/09/15 13:32:20;;;;;;;0.60;0.60;;;;;;;;;;4937223;28;20222;-76
2022/09/15 13:35:00;;;;;;;1.95;0.80;;;;;;;;;;4930357;28;20233;-74
2022/09/15 13:37:31;;;;;;;2.92;0.77;;;;;;;;;;4960522;28;20308;-75
2022/09/15 13:40:25;;;;;;;3.70;0.80;;;;;;;;;;4961768;28;20217;-76
2022/09/15 13:43:38;;;;;;;2.15;0.80;;;;;;;;;;4961609;28;20226;-76
2022/09/15 13:46:27;;;;;;;1.30;0.60;;;;;;;;;;4947300;28;20226;-75
2022/09/15 13:49:21;;;;;;;1.45;0.70;;;;;;;;;;4955026;28;20234;-76
2022/09/15 13:52:12;;;;;;;2.60;1.13;;;;;;;;;;4962029;28;20234;-75
2022/09/15 13:54:37;;;;;;;1.42;0.90;;;;;;;;;;4930789;28;20297;-76
2022/09/15 13:57:06;;;;;;;2.22;0.80;;;;;;;;;;4928556;28;20226;-75
2022/09/15 13:59:31;;;;;;;2.20;0.63;;;;;;;;;;4946326;28;20228;-73
2022/09/15 14:01:57;;;;;;;2.85;0.82;;;;;;;;;;4959595;28;20218;-73
2022/09/15 14:04:26;;;;;;;2.97;0.65;;;;;;;;;;4945909;28;20653;-75
2022/09/15 14:06:53;;;;;;;2.63;1.00;;;;;;;;;;4944057;28;20229;-74
2022/09/15 14:09:24;;;;;;;1.75;0.95;;;;;;;;;;4959136;28;20385;-74
2022/09/15 14:11:51;;;;;;;2.05;1.17;;;;;;;;;;4959537;28;20249;-74
2022/09/15 14:14:26;;;;;;;3.35;0.88;;;;;;;;;;4937444;28;20219;-74
2022/09/15 14:16:52;;;;;;;1.95;0.80;;;;;;;;;;4957836;28;20268;-76
2022/09/15 14:19:35;;;;;;;1.45;0.75;;;;;;;;;;4944004;28;20601;-75
2022/09/15 14:22:16;;;;;;;3.10;0.93;;;;;;;;;;4975111;28;20226;-74
2022/09/15 14:24:46;;;;;;;1.48;0.77;;;;;;;;;;4948369;28;20230;-78
2022/09/15 14:27:11;;;;;;;1.58;0.80;;;;;;;;;;4930066;28;20317;-75
2022/09/15 14:29:40;;;;;;;2.55;1.00;;;;;;;;;;4962607;28;20766;-79
2022/09/15 14:32:11;;;;;;;2.05;0.70;;;;;;;;;;4945348;28;21013;-76
2022/09/15 14:34:36;;;;;;;1.85;0.75;;;;;;;;;;4948321;28;20222;-75
2022/09/15 14:37:04;;;;;;;0.77;0.65;;;;;;;;;;4950173;28;20317;-75
2022/09/15 14:39:29;;;;;;;0.73;0.60;;;;;;;;;;4955862;28;20233;-75
2022/09/15 14:41:57;;;;;;;5.38;4.55;;;;;;;;;;4929783;28;20265;-76
2022/09/15 14:44:37;;;;;;;6.82;6.13;;;;;;;;;;4960573;28;20310;-75
2022/09/15 14:47:12;;;;;;;1.75;1.13;;;;;;;;;;4960367;28;20218;-76
2022/09/15 14:49:40;;;;;;;2.00;0.73;;;;;;;;;;4961696;28;20264;-75
2022/09/15 14:52:20;;;;;;;1.58;0.80;;;;;;;;;;4962656;28;20226;-74
2022/09/15 14:54:45;;;;;;;1.10;0.70;;;;;;;;;;4962545;28;20712;-75
2022/09/15 14:57:11;;;;;;;1.48;0.77;;;;;;;;;;4945209;28;20226;-74
2022/09/15 14:59:48;;;;;;;1.90;0.90;;;;;;;;;;4954068;28;20239;-75
2022/09/15 15:02:42;;;;;;;2.97;0.93;;;;;;;;;;4927230;28;20226;-75
2022/09/15 15:05:18;;;;;;;2.30;0.85;;;;;;;;;;4960397;28;20249;-75
2022/09/15 15:07:44;;;;;;;1.25;0.60;;;;;;;;;;4947671;28;20260;-76
2022/09/15 15:10:15;;;;;;;1.50;0.85;;;;;;;;;;4944113;28;20321;-76
2022/09/15 15:12:43;;;;;;;2.50;1.00;;;;;;;;;;4943334;28;20238;-77
2022/09/15 15:15:11;;;;;;;1.55;0.80;;;;;;;;;;4959665;28;20226;-75